createdAt,value
2019-01-24T00:01:08.824Z,-3.93
2019-01-24T00:03:40.313Z,-3.91
2019-01-24T00:06:12.110Z,-3.91
2019-01-24T00:08:43.606Z,-4.10
2019-01-24T00:11:15.273Z,-4.06
2019-01-24T00:13:47.170Z,-3.93
2019-01-24T00:16:18.681Z,-3.93
2019-01-24T00:18:50.222Z,-4.03
2019-01-24T00:21:21.770Z,-3.98
2019-01-24T00:23:53.652Z,-3.91
2019-01-24T00:26:25.234Z,-4.03
2019-01-24T00:28:56.823Z,-3.97
2019-01-24T00:31:28.332Z,-3.87
2019-01-24T00:33:59.854Z,-4.20
2019-01-24T00:36:31.356Z,-4.03
2019-01-24T00:39:02.948Z,-4.05
2019-01-24T00:41:35.523Z,-4.01
2019-01-24T00:44:07.180Z,-3.92
2019-01-24T00:46:38.832Z,-3.87
2019-01-24T00:49:10.355Z,-3.86
2019-01-24T00:51:41.936Z,-3.79
2019-01-24T00:54:13.492Z,-3.87
2019-01-24T00:56:44.959Z,-3.76
2019-01-24T00:59:16.708Z,-3.68
2019-01-24T01:01:48.230Z,-3.74
2019-01-24T01:04:19.739Z,-3.69
2019-01-24T01:06:51.206Z,-3.77
2019-01-24T01:09:22.664Z,-3.80
2019-01-24T01:11:54.168Z,-3.73
2019-01-24T01:14:25.976Z,-3.77
2019-01-24T01:16:58.445Z,-3.74
2019-01-24T01:19:30.013Z,-3.69
2019-01-24T01:22:01.480Z,-3.70
2019-01-24T01:24:33.418Z,-3.71
2019-01-24T01:27:04.908Z,-3.83
2019-01-24T01:29:36.584Z,-3.68
2019-01-24T01:32:08.098Z,-3.70
2019-01-24T01:34:39.624Z,-3.65
2019-01-24T01:37:11.177Z,-3.66
2019-01-24T01:39:42.783Z,-3.64
2019-01-24T01:42:14.248Z,-3.58
2019-01-24T01:44:46.048Z,-3.66
2019-01-24T01:47:17.554Z,-3.60
2019-01-24T01:49:49.065Z,-3.69
2019-01-24T01:52:20.631Z,-3.78
2019-01-24T01:54:52.084Z,-3.71
2019-01-24T01:57:23.558Z,-3.62
2019-01-24T01:59:55.290Z,-3.68
2019-01-24T02:02:26.756Z,-3.81
2019-01-24T02:04:58.312Z,-3.92
2019-01-24T02:07:29.799Z,-3.81
2019-01-24T02:10:01.342Z,-3.81
2019-01-24T02:12:32.999Z,-4.01
2019-01-24T02:15:05.652Z,-3.81
2019-01-24T02:17:37.099Z,-3.88
2019-01-24T02:20:13.071Z,-3.83
2019-01-24T02:22:44.566Z,-3.75
2019-01-24T02:25:16.160Z,-3.82
2019-01-24T02:27:47.744Z,-3.70
2019-01-24T02:30:25.627Z,-3.84
2019-01-24T02:32:57.116Z,-3.77
2019-01-24T02:35:28.604Z,-3.87
2019-01-24T02:38:00.067Z,-3.82
2019-01-24T02:40:31.610Z,-3.85
2019-01-24T02:43:03.100Z,-3.80
2019-01-24T02:45:34.619Z,-3.69
2019-01-24T02:48:06.144Z,-3.72
2019-01-24T02:50:37.619Z,-3.66
2019-01-24T02:53:09.148Z,-3.65
2019-01-24T02:55:40.606Z,-3.54
2019-01-24T02:58:12.335Z,-3.64
2019-01-24T03:00:43.837Z,-3.80
2019-01-24T03:03:15.341Z,-3.83
2019-01-24T03:05:46.874Z,-3.79
2019-01-24T03:08:18.380Z,-3.70
2019-01-24T03:10:49.910Z,-3.77
2019-01-24T03:13:21.422Z,-3.83
2019-01-24T03:15:52.906Z,-3.74
2019-01-24T03:18:24.432Z,-3.90
2019-01-24T03:20:55.915Z,-3.64
2019-01-24T03:23:27.434Z,-3.71
2019-01-24T03:25:59.261Z,-3.85
2019-01-24T03:28:30.755Z,-3.86
2019-01-24T03:31:02.367Z,-3.78
2019-01-24T03:33:33.941Z,-3.85
2019-01-24T03:36:05.422Z,-4.00
2019-01-24T03:38:37.011Z,-4.03
2019-01-24T03:41:08.494Z,-3.91
2019-01-24T03:43:39.956Z,-3.84
2019-01-24T03:46:12.146Z,-3.93
2019-01-24T03:48:43.661Z,-3.89
2019-01-24T03:51:15.109Z,-4.06
2019-01-24T03:53:46.630Z,-4.06
2019-01-24T03:56:18.170Z,-3.96
2019-01-24T03:58:49.663Z,-3.91
2019-01-24T04:01:21.443Z,-3.78
2019-01-24T04:03:52.980Z,-3.77
2019-01-24T04:06:24.493Z,-3.78
2019-01-24T04:08:55.926Z,-3.85
2019-01-24T04:11:27.451Z,-3.81
2019-01-24T04:13:59.175Z,-3.85
2019-01-24T04:16:30.970Z,-3.93
2019-01-24T04:19:02.472Z,-4.03
2019-01-24T04:21:34.026Z,-3.97
2019-01-24T04:24:05.459Z,-4.03
2019-01-24T04:26:37.036Z,-4.05
2019-01-24T04:29:08.484Z,-4.05
2019-01-24T04:31:39.986Z,-4.22
2019-01-24T04:34:11.489Z,-4.07
2019-01-24T04:36:42.994Z,-4.16
2019-01-24T04:39:14.529Z,-4.26
2019-01-24T04:41:46.037Z,-4.11
2019-01-24T04:44:17.581Z,-4.12
2019-01-24T04:46:49.246Z,-4.03
2019-01-24T04:49:20.739Z,-3.96
2019-01-24T04:51:52.190Z,-3.90
2019-01-24T04:54:23.662Z,-4.00
2019-01-24T04:56:55.094Z,-4.08
2019-01-24T04:59:26.657Z,-4.18
2019-01-24T05:01:58.392Z,-4.09
2019-01-24T05:04:29.911Z,-4.03
2019-01-24T05:07:01.386Z,-4.34
2019-01-24T05:09:32.925Z,-4.28
2019-01-24T05:12:04.461Z,-4.21
2019-01-24T05:14:36.059Z,-4.16
2019-01-24T05:17:07.816Z,-4.30
2019-01-24T05:19:39.340Z,-4.26
2019-01-24T05:22:10.902Z,-4.36
2019-01-24T05:24:42.495Z,-4.32
2019-01-24T05:27:14.050Z,-4.47
2019-01-24T05:29:45.631Z,-4.39
2019-01-24T05:32:17.655Z,-4.41
2019-01-24T05:34:49.138Z,-4.59
2019-01-24T05:37:20.583Z,-4.52
2019-01-24T05:39:52.066Z,-4.33
2019-01-24T05:42:23.616Z,-4.43
2019-01-24T05:44:55.080Z,-4.54
2019-01-24T05:47:26.918Z,-4.57
2019-01-24T05:49:58.370Z,-4.41
2019-01-24T05:52:29.856Z,-4.40
2019-01-24T05:55:01.307Z,-4.59
2019-01-24T05:57:32.825Z,-4.50
2019-01-24T06:00:05.108Z,-4.51
2019-01-24T06:02:36.856Z,-4.54
2019-01-24T06:05:09.353Z,-4.42
2019-01-24T06:07:40.958Z,-4.56
2019-01-24T06:10:15.288Z,-4.45
2019-01-24T06:12:46.852Z,-4.57
2019-01-24T06:15:18.369Z,-4.48
2019-01-24T06:17:51.163Z,-4.55
2019-01-24T06:20:22.740Z,-4.42
2019-01-24T06:22:54.267Z,-4.45
2019-01-24T06:25:25.780Z,-4.47
2019-01-24T06:27:57.597Z,-4.44
2019-01-24T06:30:29.112Z,-4.40
2019-01-24T06:33:00.778Z,-4.21
2019-01-24T06:35:32.394Z,-4.19
2019-01-24T06:38:03.895Z,-4.27
2019-01-24T06:40:35.399Z,-4.19
2019-01-24T06:43:06.941Z,-4.21
2019-01-24T06:45:38.447Z,-4.32
2019-01-24T06:48:10.225Z,-4.27
2019-01-24T06:50:42.156Z,-4.27
2019-01-24T06:53:13.652Z,-4.20
2019-01-24T06:55:45.154Z,-4.28
2019-01-24T06:58:16.649Z,-4.28
2019-01-24T07:00:48.212Z,-4.46
2019-01-24T07:03:20.345Z,-4.28
2019-01-24T07:05:55.329Z,-4.34
2019-01-24T07:08:25.138Z,-4.49
2019-01-24T07:10:56.680Z,-4.46
2019-01-24T07:13:28.181Z,-4.39
2019-01-24T07:15:59.944Z,-4.40
2019-01-24T07:18:31.432Z,-4.49
2019-01-24T07:21:02.974Z,-4.45
2019-01-24T07:23:34.477Z,-4.46
2019-01-24T07:26:06.010Z,-4.52
2019-01-24T07:28:37.767Z,-4.45
2019-01-24T07:31:09.259Z,-4.51
2019-01-24T07:33:40.840Z,-4.39
2019-01-24T07:36:12.355Z,-4.59
2019-01-24T07:38:43.809Z,-4.43
2019-01-24T07:41:15.370Z,-4.28
2019-01-24T07:43:46.830Z,-4.26
2019-01-24T07:46:18.350Z,-4.41
2019-01-24T07:48:50.201Z,-4.32
2019-01-24T07:51:21.742Z,-4.45
2019-01-24T07:53:53.311Z,-4.29
2019-01-24T07:56:24.887Z,-4.16
2019-01-24T07:58:56.330Z,-4.06
2019-01-24T08:01:27.838Z,-4.12
2019-01-24T08:03:59.629Z,-4.20
2019-01-24T08:06:31.125Z,-4.26
2019-01-24T08:09:02.627Z,-4.11
2019-01-24T08:11:34.078Z,-4.11
2019-01-24T08:14:05.728Z,-4.16
2019-01-24T08:16:37.271Z,-4.07
2019-01-24T08:19:09.066Z,-4.10
2019-01-24T08:21:40.522Z,-4.05
2019-01-24T08:24:12.370Z,-3.99
2019-01-24T08:26:43.845Z,-3.97
2019-01-24T08:29:15.714Z,-3.97
2019-01-24T08:31:47.176Z,-3.98
2019-01-24T08:34:19.046Z,-3.96
2019-01-24T08:36:50.515Z,-3.84
2019-01-24T08:39:22.088Z,-4.02
2019-01-24T08:41:53.598Z,-3.90
2019-01-24T08:44:25.134Z,-3.85
2019-01-24T08:46:56.990Z,-4.03
2019-01-24T08:49:28.845Z,-3.93
2019-01-24T08:52:00.352Z,-3.84
2019-01-24T08:54:31.954Z,-3.84
2019-01-24T08:57:03.505Z,-3.74
2019-01-24T08:59:35.131Z,-3.67
2019-01-24T09:02:06.604Z,-3.95
2019-01-24T09:04:38.405Z,-3.86
2019-01-24T09:07:09.936Z,-3.71
2019-01-24T09:09:41.410Z,-3.75
2019-01-24T09:12:12.892Z,-3.69
2019-01-24T09:14:44.385Z,-3.72
2019-01-24T09:17:15.865Z,-3.61
2019-01-24T09:19:47.744Z,-3.58
2019-01-24T09:22:19.218Z,-3.54
2019-01-24T09:24:50.670Z,-3.54
2019-01-24T09:27:22.246Z,-3.50
2019-01-24T09:29:53.990Z,-3.45
2019-01-24T09:32:25.515Z,-3.29
2019-01-24T09:34:57.202Z,-3.27
2019-01-24T09:37:28.735Z,-3.22
2019-01-24T09:40:00.325Z,-3.34
2019-01-24T09:42:31.797Z,-3.22
2019-01-24T09:45:03.267Z,-3.02
2019-01-24T09:47:34.823Z,-2.83
2019-01-24T09:50:09.328Z,-3.04
2019-01-24T09:52:40.821Z,-3.05
2019-01-24T09:55:12.295Z,-2.94
2019-01-24T09:57:43.856Z,-2.87
2019-01-24T10:00:22.189Z,-2.71
2019-01-24T10:02:53.694Z,-2.94
2019-01-24T10:05:25.459Z,-2.83
2019-01-24T10:07:57.004Z,-2.62
2019-01-24T10:10:28.614Z,-3.06
2019-01-24T10:13:00.358Z,-2.99
2019-01-24T10:15:31.846Z,-2.66
2019-01-24T10:18:03.430Z,-2.46
2019-01-24T10:20:35.134Z,-2.43
2019-01-24T10:23:06.749Z,-2.17
2019-01-24T10:25:44.285Z,-2.12
2019-01-24T10:28:15.844Z,-2.09
2019-01-24T10:30:47.617Z,-2.08
2019-01-24T10:33:19.117Z,-2.17
2019-01-24T10:35:50.850Z,-2.12
2019-01-24T10:38:22.402Z,-2.21
2019-01-24T10:40:53.964Z,-2.10
2019-01-24T10:43:25.528Z,-2.14
2019-01-24T10:45:56.994Z,-2.30
2019-01-24T10:48:29.712Z,-2.23
2019-01-24T10:51:01.642Z,-2.16
2019-01-24T10:53:33.158Z,-2.10
2019-01-24T10:56:04.646Z,-2.03
2019-01-24T10:58:36.175Z,-2.27
2019-01-24T11:01:07.803Z,-2.23
2019-01-24T11:03:39.265Z,-1.94
2019-01-24T11:06:11.047Z,-1.49
2019-01-24T11:08:42.542Z,-1.19
2019-01-24T11:11:14.105Z,-1.21
2019-01-24T11:13:45.552Z,-1.16
2019-01-24T11:16:17.164Z,-1.30
2019-01-24T11:18:48.768Z,-1.26
2019-01-24T11:21:20.626Z,-1.09
2019-01-24T11:23:52.123Z,-0.67
2019-01-24T14:24:05.176Z,-1.55
2019-01-24T14:26:36.958Z,-1.54
2019-01-24T14:29:08.431Z,-1.60
2019-01-24T14:31:39.932Z,-1.54
2019-01-24T14:34:11.410Z,-1.47
2019-01-24T14:36:43.068Z,-1.65
2019-01-24T14:39:14.543Z,-1.64
2019-01-24T14:41:46.079Z,-1.79
2019-01-24T14:44:17.555Z,-1.73
2019-01-24T14:46:49.146Z,-1.93
2019-01-24T14:49:20.626Z,-2.00
2019-01-24T14:51:52.143Z,-2.14
2019-01-24T14:54:23.759Z,-1.87
2019-01-24T14:56:55.325Z,-1.99
2019-01-24T14:59:26.751Z,-2.21
2019-01-24T15:01:58.369Z,-2.11
2019-01-24T15:04:29.914Z,-2.25
2019-01-24T15:07:01.746Z,-2.31
2019-01-24T15:09:33.360Z,-2.30
2019-01-24T15:12:04.914Z,-2.39
2019-01-24T15:14:36.428Z,-2.38
2019-01-24T15:17:07.912Z,-2.46
2019-01-24T15:19:39.911Z,-2.51
2019-01-24T15:22:11.413Z,-2.59
2019-01-24T15:24:43.028Z,-2.57
2019-01-24T15:27:14.593Z,-2.73
2019-01-24T15:29:46.102Z,-2.74
2019-01-24T15:32:17.581Z,-2.80
2019-01-24T15:34:49.322Z,-2.76
2019-01-24T15:37:21.137Z,-2.83
2019-01-24T15:39:52.629Z,-2.80
2019-01-24T15:42:25.397Z,-2.95
2019-01-24T15:44:57.914Z,-2.91
2019-01-24T15:47:29.414Z,-2.97
2019-01-24T15:50:01.551Z,-3.11
2019-01-24T15:52:34.154Z,-3.02
2019-01-24T15:55:06.316Z,-3.03
2019-01-24T15:57:37.882Z,-3.08
2019-01-24T16:00:15.506Z,-3.15
2019-01-24T16:02:47.116Z,-3.17
2019-01-24T16:05:19.683Z,-3.16
2019-01-24T16:07:51.153Z,-3.36
2019-01-24T16:10:23.475Z,-3.23
2019-01-24T16:12:56.125Z,-3.30
2019-01-24T16:15:36.161Z,-3.22
2019-01-24T16:18:10.983Z,-3.25
2019-01-24T16:20:42.458Z,-3.38
2019-01-24T16:23:14.051Z,-3.26
2019-01-24T16:25:46.234Z,-3.28
2019-01-24T16:28:24.465Z,-3.28
2019-01-24T16:30:51.174Z,-3.32
2019-01-24T16:33:23.320Z,-3.27
2019-01-24T16:35:54.865Z,-3.27
2019-01-24T16:38:26.624Z,-3.37
2019-01-24T16:40:59.313Z,-3.26
2019-01-24T16:43:31.079Z,-3.29
2019-01-24T16:46:02.589Z,-3.36
2019-01-24T16:48:34.184Z,-3.29
2019-01-24T16:51:06.093Z,-3.28
2019-01-24T16:53:37.614Z,-3.41
2019-01-24T16:56:09.146Z,-3.34
2019-01-24T16:58:40.788Z,-3.36
2019-01-24T17:01:22.836Z,-3.54
2019-01-24T17:03:54.365Z,-3.39
2019-01-24T17:06:26.447Z,-3.64
2019-01-24T17:08:57.986Z,-3.49
2019-01-24T17:11:30.583Z,-3.46
2019-01-24T17:14:02.211Z,-3.53
2019-01-24T17:16:33.991Z,-3.67
2019-01-24T17:19:05.669Z,-3.65
2019-01-24T17:21:37.513Z,-3.51
2019-01-24T17:24:09.018Z,-3.65
2019-01-24T17:26:40.895Z,-3.57
2019-01-24T17:29:12.526Z,-3.49
2019-01-24T17:31:44.046Z,-3.59
2019-01-24T17:34:15.710Z,-3.54
2019-01-24T17:36:47.639Z,-3.74
2019-01-24T17:39:19.108Z,-3.71
2019-01-24T17:41:50.698Z,-3.71
2019-01-24T17:44:22.371Z,-3.84
2019-01-24T17:46:54.119Z,-3.71
2019-01-24T17:49:25.703Z,-3.89
2019-01-24T17:51:57.725Z,-3.98
2019-01-24T17:54:29.247Z,-4.06
2019-01-24T17:57:00.868Z,-3.90
2019-01-24T17:59:32.372Z,-3.90
2019-01-24T18:02:03.909Z,-3.84
2019-01-24T18:04:35.449Z,-3.96
2019-01-24T18:07:07.340Z,-3.97
2019-01-24T18:09:39.930Z,-3.90
2019-01-24T18:12:11.813Z,-3.92
2019-01-24T18:14:43.286Z,-3.98
2019-01-24T18:17:15.994Z,-4.03
2019-01-24T18:19:47.531Z,-3.96
2019-01-24T18:22:19.075Z,-3.96
2019-01-24T18:24:50.553Z,-3.93
2019-01-24T18:27:22.074Z,-4.11
2019-01-24T18:29:53.745Z,-4.20
2019-01-24T18:32:25.359Z,-4.16
2019-01-24T18:34:56.876Z,-3.96
2019-01-24T18:37:28.647Z,-4.04
2019-01-24T18:40:00.190Z,-4.21
2019-01-24T18:42:31.745Z,-4.10
2019-01-24T18:45:03.427Z,-4.06
2019-01-24T18:47:35.111Z,-4.22
2019-01-24T18:50:10.799Z,-4.23
2019-01-24T18:52:42.877Z,-4.19
2019-01-24T18:55:14.728Z,-4.22
2019-01-24T18:57:48.439Z,-4.28
2019-01-24T19:00:30.076Z,-4.23
2019-01-24T19:03:01.700Z,-4.29
2019-01-24T19:05:33.417Z,-4.46
2019-01-24T19:08:05.214Z,-4.55
2019-01-24T19:10:37.129Z,-4.35
2019-01-24T19:13:10.031Z,-4.41
2019-01-24T19:15:48.050Z,-4.39
2019-01-24T19:18:21.080Z,-4.64
2019-01-24T19:20:52.931Z,-4.67
2019-01-24T19:23:25.549Z,-4.78
2019-01-24T19:25:57.733Z,-4.67
2019-01-24T19:28:29.692Z,-4.71
2019-01-24T19:31:01.560Z,-4.67
2019-01-24T19:33:33.528Z,-4.71
2019-01-24T19:36:05.301Z,-4.60
2019-01-24T19:38:37.397Z,-4.65
2019-01-24T19:41:09.372Z,-4.57
2019-01-24T19:43:41.022Z,-4.49
2019-01-24T19:46:13.256Z,-4.65
2019-01-24T19:48:45.137Z,-4.67
2019-01-24T19:51:16.648Z,-4.66
2019-01-24T19:53:48.913Z,-4.52
2019-01-24T19:56:20.528Z,-4.41
2019-01-24T19:58:52.020Z,-4.59
2019-01-24T20:01:23.731Z,-4.55
2019-01-24T20:03:55.371Z,-4.69
2019-01-24T20:06:26.850Z,-4.64
2019-01-24T20:09:00.428Z,-4.81
2019-01-24T20:11:31.929Z,-4.81
2019-01-24T20:14:03.499Z,-4.82
2019-01-24T20:16:35.050Z,-4.65
2019-01-24T20:19:06.592Z,-4.61
2019-01-24T20:21:38.141Z,-4.75
2019-01-24T20:24:10.058Z,-4.87
2019-01-24T20:26:41.705Z,-4.74
2019-01-24T20:29:13.166Z,-4.80
2019-01-24T20:31:44.681Z,-4.68
2019-01-24T20:34:16.299Z,-4.76
2019-01-24T20:36:48.143Z,-4.70
2019-01-24T20:39:20.021Z,-4.60
2019-01-24T20:41:51.614Z,-4.73
2019-01-24T20:44:24.425Z,-4.70
2019-01-24T20:46:55.980Z,-4.60
2019-01-24T20:49:28.725Z,-4.57
2019-01-24T20:52:00.241Z,-4.72
2019-01-24T20:54:32.032Z,-4.65
2019-01-24T20:57:03.620Z,-4.81
2019-01-24T20:59:35.348Z,-4.76
2019-01-24T21:02:07.761Z,-4.72
2019-01-24T21:04:39.579Z,-4.83
2019-01-24T21:07:12.269Z,-4.75
2019-01-24T21:09:45.010Z,-4.68
2019-01-24T21:12:17.242Z,-4.60
2019-01-24T21:14:49.656Z,-4.89
2019-01-24T21:17:21.330Z,-4.59
2019-01-24T21:19:53.041Z,-4.46
2019-01-24T21:22:25.079Z,-4.60
2019-01-24T21:24:56.694Z,-4.47
2019-01-24T21:27:28.941Z,-4.68
2019-01-24T21:30:02.166Z,-4.74
2019-01-24T21:32:33.969Z,-4.64
2019-01-24T21:35:06.037Z,-4.45
2019-01-24T21:37:37.550Z,-4.40
2019-01-24T21:40:11.698Z,-4.66
2019-01-24T21:42:43.322Z,-4.78
2019-01-24T21:45:21.308Z,-4.63
2019-01-24T21:47:53.102Z,-4.84
2019-01-24T21:50:26.049Z,-4.71
2019-01-24T21:52:57.711Z,-4.72
2019-01-24T21:55:29.665Z,-4.63
2019-01-24T21:58:02.343Z,-4.55
2019-01-24T22:00:35.010Z,-4.60
2019-01-24T22:03:06.908Z,-4.68
2019-01-24T22:05:38.464Z,-4.61
2019-01-24T22:08:10.103Z,-4.60
2019-01-24T22:10:41.980Z,-4.71
2019-01-24T22:13:13.511Z,-4.73
2019-01-24T22:15:44.991Z,-4.82
2019-01-24T22:18:16.580Z,-4.75
2019-01-24T22:20:48.219Z,-4.81
2019-01-24T22:23:19.826Z,-4.76
2019-01-24T22:25:51.617Z,-4.83
2019-01-24T22:28:23.091Z,-4.78
2019-01-24T22:30:57.115Z,-4.66
2019-01-24T22:33:28.700Z,-4.74
2019-01-24T22:36:00.153Z,-4.74
2019-01-24T22:38:31.682Z,-4.75
2019-01-24T22:41:03.409Z,-4.78
2019-01-24T22:43:34.958Z,-4.81
2019-01-24T22:46:06.424Z,-4.87
2019-01-24T22:48:37.904Z,-4.92
2019-01-24T22:51:09.384Z,-5.02
2019-01-24T22:53:40.908Z,-4.95
2019-01-24T22:56:12.403Z,-5.00
2019-01-24T22:58:43.889Z,-4.90
2019-01-24T23:01:41.750Z,-4.92
2019-01-24T23:04:20.259Z,-4.85
2019-01-24T23:06:51.785Z,-4.84
2019-01-24T23:09:24.105Z,-5.02
2019-01-24T23:11:55.824Z,-4.90
2019-01-24T23:14:27.259Z,-4.79
2019-01-24T23:16:58.787Z,-4.84
2019-01-24T23:19:30.311Z,-4.81
2019-01-24T23:22:02.892Z,-4.75
2019-01-24T23:24:34.461Z,-4.63
2019-01-24T23:27:06.364Z,-4.80
2019-01-24T23:29:37.878Z,-4.77
2019-01-24T23:32:09.446Z,-4.68
2019-01-24T23:34:40.873Z,-4.71
2019-01-24T23:37:12.401Z,-4.63
2019-01-24T23:39:43.879Z,-4.79
2019-01-24T23:42:15.679Z,-4.90
2019-01-24T23:44:47.383Z,-4.87
2019-01-24T23:47:18.896Z,-4.99
2019-01-24T23:49:50.357Z,-4.78
2019-01-24T23:52:21.911Z,-4.83
2019-01-24T23:54:53.358Z,-4.73
2019-01-24T23:57:25.203Z,-4.66
2019-01-24T23:59:56.700Z,-4.71
